Terminal Aerodrome Forecast
Issued by NWS Blacksburg, VA

Current Version | Previous Version | Graphics & Text | Print | Product List | Glossary On
Versions: 1 2 3 4 5 6 7 8 9 10 11 12 13 14 15 16 17 18 19 20 21 22 23 24 25 26 27 28 29 30 31 32 33 34 35 36 37 38 39 40 41 42 43 44
000
FTUS41 KRNK 210520
TAFBLF
TAF
KBLF 210520Z 2106/2206 22005KT P6SM BKN045 OVC250
     FM210900 15005KT 4SM BR OVC005
     FM211500 15006KT P6SM OVC015
     FM211800 15007KT P6SM OVC025
     FM212100 14006KT 4SM -SHRA BR BKN009 OVC013
     FM220200 VRB03KT 3SM BR OVC004=

USA.gov is the U.S. government's official web portal to all federal, state and local government web resources and services.